sensor_id;sensor_type;location;lat;lon;timestamp;P1;durP1;ratioP1;P2;durP2;ratioP2
30743;SDS011;17486;46.738;7.622;2023-12-22T00:00:58;0.25;;;0.25;;
30743;SDS011;17486;46.738;7.622;2023-12-22T00:03:23;0.47;;;0.40;;
30743;SDS011;17486;46.738;7.622;2023-12-22T00:05:49;1.65;;;0.35;;
30743;SDS011;17486;46.738;7.622;2023-12-22T00:08:14;0.80;;;0.50;;
30743;SDS011;17486;46.738;7.622;2023-12-22T00:10:39;0.22;;;0.22;;
30743;SDS011;17486;46.738;7.622;2023-12-22T00:13:06;0.93;;;0.40;;
30743;SDS011;17486;46.738;7.622;2023-12-22T00:15:31;0.22;;;0.22;;
30743;SDS011;17486;46.738;7.622;2023-12-22T00:17:56;0.20;;;0.20;;
30743;SDS011;17486;46.738;7.622;2023-12-22T00:20:22;0.10;;;0.10;;
30743;SDS011;17486;46.738;7.622;2023-12-22T00:22:47;0.10;;;0.10;;
30743;SDS011;17486;46.738;7.622;2023-12-22T00:25:12;0.20;;;0.20;;
30743;SDS011;17486;46.738;7.622;2023-12-22T00:27:38;0.10;;;0.10;;
30743;SDS011;17486;46.738;7.622;2023-12-22T00:30:03;0.20;;;0.20;;
30743;SDS011;17486;46.738;7.622;2023-12-22T00:32:29;0.82;;;0.20;;
30743;SDS011;17486;46.738;7.622;2023-12-22T00:34:54;0.10;;;0.10;;
30743;SDS011;17486;46.738;7.622;2023-12-22T00:37:21;0.68;;;0.20;;
30743;SDS011;17486;46.738;7.622;2023-12-22T00:39:47;0.88;;;0.30;;
30743;SDS011;17486;46.738;7.622;2023-12-22T00:42:12;0.10;;;0.10;;
30743;SDS011;17486;46.738;7.622;2023-12-22T00:44:37;0.10;;;0.10;;
30743;SDS011;17486;46.738;7.622;2023-12-22T00:47:05;1.30;;;0.15;;
30743;SDS011;17486;46.738;7.622;2023-12-22T00:49:30;0.22;;;0.10;;
30743;SDS011;17486;46.738;7.622;2023-12-22T00:51:55;0.35;;;0.20;;
30743;SDS011;17486;46.738;7.622;2023-12-22T00:54:21;1.38;;;0.30;;
30743;SDS011;17486;46.738;7.622;2023-12-22T00:56:46;0.25;;;0.20;;
30743;SDS011;17486;46.738;7.622;2023-12-22T00:59:11;0.30;;;0.30;;
30743;SDS011;17486;46.738;7.622;2023-12-22T01:01:37;0.85;;;0.40;;
30743;SDS011;17486;46.738;7.622;2023-12-22T01:04:02;0.40;;;0.30;;
30743;SDS011;17486;46.738;7.622;2023-12-22T01:06:28;0.82;;;0.35;;
30743;SDS011;17486;46.738;7.622;2023-12-22T01:08:54;1.00;;;0.30;;
30743;SDS011;17486;46.738;7.622;2023-12-22T01:11:19;2.50;;;0.60;;
30743;SDS011;17486;46.738;7.622;2023-12-22T01:13:44;1.23;;;0.40;;
30743;SDS011;17486;46.738;7.622;2023-12-22T01:16:10;1.10;;;0.43;;
30743;SDS011;17486;46.738;7.622;2023-12-22T01:18:35;0.40;;;0.30;;
30743;SDS011;17486;46.738;7.622;2023-12-22T01:21:01;1.95;;;0.70;;
30743;SDS011;17486;46.738;7.622;2023-12-22T01:23:26;1.08;;;0.55;;
30743;SDS011;17486;46.738;7.622;2023-12-22T01:25:51;1.05;;;0.60;;
30743;SDS011;17486;46.738;7.622;2023-12-22T01:28:17;0.80;;;0.35;;
30743;SDS011;17486;46.738;7.622;2023-12-22T01:30:42;0.63;;;0.47;;
30743;SDS011;17486;46.738;7.622;2023-12-22T01:33:08;0.85;;;0.40;;
30743;SDS011;17486;46.738;7.622;2023-12-22T01:35:33;1.52;;;0.65;;
30743;SDS011;17486;46.738;7.622;2023-12-22T01:37:58;1.35;;;0.50;;
30743;SDS011;17486;46.738;7.622;2023-12-22T01:40:24;0.55;;;0.55;;
30743;SDS011;17486;46.738;7.622;2023-12-22T01:42:49;2.50;;;0.50;;
30743;SDS011;17486;46.738;7.622;2023-12-22T01:45:15;0.80;;;0.80;;
30743;SDS011;17486;46.738;7.622;2023-12-22T01:47:40;0.77;;;0.50;;
30743;SDS011;17486;46.738;7.622;2023-12-22T01:50:07;1.63;;;0.50;;
30743;SDS011;17486;46.738;7.622;2023-12-22T01:52:35;0.65;;;0.55;;
30743;SDS011;17486;46.738;7.622;2023-12-22T01:55:02;0.43;;;0.30;;
30743;SDS011;17486;46.738;7.622;2023-12-22T01:57:29;2.05;;;0.35;;
30743;SDS011;17486;46.738;7.622;2023-12-22T01:59:54;1.30;;;0.55;;
30743;SDS011;17486;46.738;7.622;2023-12-22T02:02:21;2.38;;;0.40;;
30743;SDS011;17486;46.738;7.622;2023-12-22T02:04:47;1.60;;;0.50;;
30743;SDS011;17486;46.738;7.622;2023-12-22T02:07:13;0.70;;;0.47;;
30743;SDS011;17486;46.738;7.622;2023-12-22T02:09:38;1.40;;;0.32;;
30743;SDS011;17486;46.738;7.622;2023-12-22T02:12:04;1.33;;;0.70;;
30743;SDS011;17486;46.738;7.622;2023-12-22T02:14:29;0.90;;;0.45;;
30743;SDS011;17486;46.738;7.622;2023-12-22T02:16:59;0.82;;;0.50;;
30743;SDS011;17486;46.738;7.622;2023-12-22T02:22:06;0.82;;;0.50;;
30743;SDS011;17486;46.738;7.622;2023-12-22T02:24:32;3.92;;;0.60;;
30743;SDS011;17486;46.738;7.622;2023-12-22T02:30:07;1.45;;;0.85;;
30743;SDS011;17486;46.738;7.622;2023-12-22T02:32:38;0.68;;;0.50;;
30743;SDS011;17486;46.738;7.622;2023-12-22T02:35:10;0.85;;;0.50;;
30743;SDS011;17486;46.738;7.622;2023-12-22T02:37:39;0.73;;;0.30;;
30743;SDS011;17486;46.738;7.622;2023-12-22T02:40:06;1.08;;;0.47;;
30743;SDS011;17486;46.738;7.622;2023-12-22T02:42:33;0.57;;;0.30;;
30743;SDS011;17486;46.738;7.622;2023-12-22T02:44:59;0.30;;;0.30;;
30743;SDS011;17486;46.738;7.622;2023-12-22T02:47:26;0.52;;;0.30;;
30743;SDS011;17486;46.738;7.622;2023-12-22T02:49:54;0.77;;;0.40;;
30743;SDS011;17486;46.738;7.622;2023-12-22T02:52:19;1.17;;;0.30;;
30743;SDS011;17486;46.738;7.622;2023-12-22T02:54:45;0.47;;;0.38;;
30743;SDS011;17486;46.738;7.622;2023-12-22T02:57:12;0.22;;;0.20;;
30743;SDS011;17486;46.738;7.622;2023-12-22T02:59:38;0.20;;;0.10;;
30743;SDS011;17486;46.738;7.622;2023-12-22T03:02:03;0.63;;;0.25;;
30743;SDS011;17486;46.738;7.622;2023-12-22T03:04:29;1.33;;;0.20;;
30743;SDS011;17486;46.738;7.622;2023-12-22T03:06:54;0.25;;;0.20;;
30743;SDS011;17486;46.738;7.622;2023-12-22T03:09:19;0.80;;;0.38;;
30743;SDS011;17486;46.738;7.622;2023-12-22T03:11:48;1.02;;;0.30;;
30743;SDS011;17486;46.738;7.622;2023-12-22T03:14:14;1.60;;;0.55;;
30743;SDS011;17486;46.738;7.622;2023-12-22T03:16:39;1.35;;;0.30;;
30743;SDS011;17486;46.738;7.622;2023-12-22T03:19:06;1.35;;;0.60;;
30743;SDS011;17486;46.738;7.622;2023-12-22T03:21:32;1.58;;;0.75;;
30743;SDS011;17486;46.738;7.622;2023-12-22T03:23:57;0.50;;;0.50;;
30743;SDS011;17486;46.738;7.622;2023-12-22T03:26:22;1.45;;;0.40;;
30743;SDS011;17486;46.738;7.622;2023-12-22T03:28:48;0.80;;;0.40;;
30743;SDS011;17486;46.738;7.622;2023-12-22T03:31:13;2.15;;;0.70;;
30743;SDS011;17486;46.738;7.622;2023-12-22T03:33:38;1.38;;;0.65;;
30743;SDS011;17486;46.738;7.622;2023-12-22T03:36:04;3.08;;;1.10;;
30743;SDS011;17486;46.738;7.622;2023-12-22T03:38:29;2.50;;;0.85;;
30743;SDS011;17486;46.738;7.622;2023-12-22T03:40:55;2.60;;;0.98;;
30743;SDS011;17486;46.738;7.622;2023-12-22T03:43:20;2.17;;;1.10;;
30743;SDS011;17486;46.738;7.622;2023-12-22T03:45:45;3.22;;;0.95;;
30743;SDS011;17486;46.738;7.622;2023-12-22T03:48:11;2.03;;;0.60;;
30743;SDS011;17486;46.738;7.622;2023-12-22T03:50:36;2.95;;;0.77;;
30743;SDS011;17486;46.738;7.622;2023-12-22T03:53:02;3.95;;;1.23;;
30743;SDS011;17486;46.738;7.622;2023-12-22T03:55:27;2.22;;;0.70;;
30743;SDS011;17486;46.738;7.622;2023-12-22T03:57:53;4.30;;;1.00;;
30743;SDS011;17486;46.738;7.622;2023-12-22T04:00:18;3.72;;;1.05;;
30743;SDS011;17486;46.738;7.622;2023-12-22T04:02:44;2.13;;;0.80;;
30743;SDS011;17486;46.738;7.622;2023-12-22T04:05:12;1.65;;;0.70;;
30743;SDS011;17486;46.738;7.622;2023-12-22T04:07:37;3.40;;;0.70;;
30743;SDS011;17486;46.738;7.622;2023-12-22T04:10:02;1.85;;;0.80;;
30743;SDS011;17486;46.738;7.622;2023-12-22T04:12:28;2.65;;;0.90;;
30743;SDS011;17486;46.738;7.622;2023-12-22T04:14:53;5.10;;;1.35;;
30743;SDS011;17486;46.738;7.622;2023-12-22T04:17:19;3.38;;;1.00;;
30743;SDS011;17486;46.738;7.622;2023-12-22T04:19:44;1.98;;;0.90;;
30743;SDS011;17486;46.738;7.622;2023-12-22T04:22:09;2.47;;;0.90;;
30743;SDS011;17486;46.738;7.622;2023-12-22T04:24:35;2.88;;;0.93;;
30743;SDS011;17486;46.738;7.622;2023-12-22T04:27:00;1.60;;;0.70;;
30743;SDS011;17486;46.738;7.622;2023-12-22T04:29:25;2.90;;;1.13;;
30743;SDS011;17486;46.738;7.622;2023-12-22T04:31:51;1.63;;;0.40;;
30743;SDS011;17486;46.738;7.622;2023-12-22T04:34:16;1.00;;;0.38;;
30743;SDS011;17486;46.738;7.622;2023-12-22T04:36:42;1.98;;;1.08;;
30743;SDS011;17486;46.738;7.622;2023-12-22T04:39:07;2.33;;;0.55;;
30743;SDS011;17486;46.738;7.622;2023-12-22T04:41:33;2.53;;;0.68;;
30743;SDS011;17486;46.738;7.622;2023-12-22T04:43:58;2.40;;;0.80;;
30743;SDS011;17486;46.738;7.622;2023-12-22T04:46:28;2.40;;;0.70;;
30743;SDS011;17486;46.738;7.622;2023-12-22T04:48:53;0.43;;;0.35;;
30743;SDS011;17486;46.738;7.622;2023-12-22T04:51:19;0.47;;;0.40;;
30743;SDS011;17486;46.738;7.622;2023-12-22T04:53:44;1.58;;;0.50;;
30743;SDS011;17486;46.738;7.622;2023-12-22T04:56:09;0.30;;;0.20;;
30743;SDS011;17486;46.738;7.622;2023-12-22T04:58:35;1.25;;;0.40;;
30743;SDS011;17486;46.738;7.622;2023-12-22T05:01:00;1.50;;;0.40;;
30743;SDS011;17486;46.738;7.622;2023-12-22T05:03:25;1.83;;;0.60;;
30743;SDS011;17486;46.738;7.622;2023-12-22T05:05:51;2.15;;;0.70;;
30743;SDS011;17486;46.738;7.622;2023-12-22T05:08:16;1.83;;;1.00;;
30743;SDS011;17486;46.738;7.622;2023-12-22T05:10:41;0.82;;;0.70;;
30743;SDS011;17486;46.738;7.622;2023-12-22T05:13:07;1.98;;;0.80;;
30743;SDS011;17486;46.738;7.622;2023-12-22T05:15:32;1.35;;;0.70;;
30743;SDS011;17486;46.738;7.622;2023-12-22T05:17:58;1.08;;;0.85;;
30743;SDS011;17486;46.738;7.622;2023-12-22T05:20:23;4.03;;;0.98;;
30743;SDS011;17486;46.738;7.622;2023-12-22T05:22:48;2.05;;;0.68;;
30743;SDS011;17486;46.738;7.622;2023-12-22T05:25:14;0.50;;;0.50;;
30743;SDS011;17486;46.738;7.622;2023-12-22T05:27:39;1.92;;;0.52;;
30743;SDS011;17486;46.738;7.622;2023-12-22T05:30:06;1.33;;;0.40;;
30743;SDS011;17486;46.738;7.622;2023-12-22T05:32:32;0.52;;;0.32;;
30743;SDS011;17486;46.738;7.622;2023-12-22T05:34:58;1.23;;;0.40;;
30743;SDS011;17486;46.738;7.622;2023-12-22T05:37:23;0.95;;;0.60;;
30743;SDS011;17486;46.738;7.622;2023-12-22T05:39:48;0.30;;;0.28;;
30743;SDS011;17486;46.738;7.622;2023-12-22T05:42:14;0.40;;;0.30;;
30743;SDS011;17486;46.738;7.622;2023-12-22T05:44:39;0.32;;;0.25;;
30743;SDS011;17486;46.738;7.622;2023-12-22T05:47:04;0.82;;;0.30;;
30743;SDS011;17486;46.738;7.622;2023-12-22T05:49:30;0.35;;;0.28;;
30743;SDS011;17486;46.738;7.622;2023-12-22T05:51:55;1.27;;;0.40;;
30743;SDS011;17486;46.738;7.622;2023-12-22T05:54:21;0.47;;;0.20;;
30743;SDS011;17486;46.738;7.622;2023-12-22T05:56:46;0.40;;;0.20;;
30743;SDS011;17486;46.738;7.622;2023-12-22T05:59:12;1.20;;;0.50;;
30743;SDS011;17486;46.738;7.622;2023-12-22T06:01:37;0.40;;;0.32;;
30743;SDS011;17486;46.738;7.622;2023-12-22T06:04:02;0.40;;;0.20;;
30743;SDS011;17486;46.738;7.622;2023-12-22T06:06:28;0.13;;;0.13;;
30743;SDS011;17486;46.738;7.622;2023-12-22T06:08:55;1.35;;;0.50;;
30743;SDS011;17486;46.738;7.622;2023-12-22T06:11:20;0.20;;;0.20;;
30743;SDS011;17486;46.738;7.622;2023-12-22T06:13:47;0.88;;;0.45;;
30743;SDS011;17486;46.738;7.622;2023-12-22T06:16:15;0.52;;;0.30;;
30743;SDS011;17486;46.738;7.622;2023-12-22T06:18:43;0.63;;;0.30;;
30743;SDS011;17486;46.738;7.622;2023-12-22T06:21:08;0.30;;;0.30;;
30743;SDS011;17486;46.738;7.622;2023-12-22T06:23:34;0.30;;;0.30;;
30743;SDS011;17486;46.738;7.622;2023-12-22T06:26:00;1.00;;;0.70;;
30743;SDS011;17486;46.738;7.622;2023-12-22T06:28:27;0.60;;;0.40;;
30743;SDS011;17486;46.738;7.622;2023-12-22T06:30:52;0.75;;;0.30;;
30743;SDS011;17486;46.738;7.622;2023-12-22T06:33:19;0.28;;;0.28;;
30743;SDS011;17486;46.738;7.622;2023-12-22T06:35:44;0.13;;;0.10;;
30743;SDS011;17486;46.738;7.622;2023-12-22T06:38:10;0.20;;;0.20;;
30743;SDS011;17486;46.738;7.622;2023-12-22T06:40:36;0.52;;;0.52;;
30743;SDS011;17486;46.738;7.622;2023-12-22T06:43:02;0.38;;;0.30;;
30743;SDS011;17486;46.738;7.622;2023-12-22T06:45:28;0.22;;;0.22;;
30743;SDS011;17486;46.738;7.622;2023-12-22T06:47:53;0.30;;;0.30;;
30743;SDS011;17486;46.738;7.622;2023-12-22T06:50:18;0.35;;;0.35;;
30743;SDS011;17486;46.738;7.622;2023-12-22T06:52:44;1.83;;;0.70;;
30743;SDS011;17486;46.738;7.622;2023-12-22T06:55:09;0.85;;;0.65;;
30743;SDS011;17486;46.738;7.622;2023-12-22T06:57:35;1.42;;;0.55;;
30743;SDS011;17486;46.738;7.622;2023-12-22T07:00:00;0.93;;;0.70;;
30743;SDS011;17486;46.738;7.622;2023-12-22T07:02:25;1.25;;;0.80;;
30743;SDS011;17486;46.738;7.622;2023-12-22T07:07:34;4.10;;;0.95;;
30743;SDS011;17486;46.738;7.622;2023-12-22T07:10:00;1.77;;;1.00;;
30743;SDS011;17486;46.738;7.622;2023-12-22T07:12:26;4.38;;;1.27;;
30743;SDS011;17486;46.738;7.622;2023-12-22T07:14:51;3.83;;;1.25;;
30743;SDS011;17486;46.738;7.622;2023-12-22T07:17:16;3.42;;;1.30;;
30743;SDS011;17486;46.738;7.622;2023-12-22T07:19:42;2.53;;;1.30;;
30743;SDS011;17486;46.738;7.622;2023-12-22T07:22:07;2.95;;;1.38;;
30743;SDS011;17486;46.738;7.622;2023-12-22T07:24:32;2.72;;;1.00;;
30743;SDS011;17486;46.738;7.622;2023-12-22T07:26:58;4.57;;;1.20;;
30743;SDS011;17486;46.738;7.622;2023-12-22T07:29:23;4.10;;;1.20;;
30743;SDS011;17486;46.738;7.622;2023-12-22T07:31:48;6.78;;;1.50;;
30743;SDS011;17486;46.738;7.622;2023-12-22T07:34:14;4.63;;;1.20;;
30743;SDS011;17486;46.738;7.622;2023-12-22T07:36:40;3.95;;;1.20;;
30743;SDS011;17486;46.738;7.622;2023-12-22T07:39:05;3.70;;;0.98;;
30743;SDS011;17486;46.738;7.622;2023-12-22T07:41:31;3.47;;;1.30;;
30743;SDS011;17486;46.738;7.622;2023-12-22T07:43:57;3.97;;;1.05;;
30743;SDS011;17486;46.738;7.622;2023-12-22T07:46:22;2.25;;;1.17;;
30743;SDS011;17486;46.738;7.622;2023-12-22T07:48:48;3.97;;;1.00;;
30743;SDS011;17486;46.738;7.622;2023-12-22T07:51:14;2.53;;;1.10;;
30743;SDS011;17486;46.738;7.622;2023-12-22T07:53:39;3.33;;;1.42;;
30743;SDS011;17486;46.738;7.622;2023-12-22T07:56:05;2.28;;;1.48;;
30743;SDS011;17486;46.738;7.622;2023-12-22T07:58:31;3.67;;;1.08;;
30743;SDS011;17486;46.738;7.622;2023-12-22T08:00:57;4.28;;;1.13;;
30743;SDS011;17486;46.738;7.622;2023-12-22T08:03:23;2.58;;;1.05;;
30743;SDS011;17486;46.738;7.622;2023-12-22T08:05:48;3.38;;;1.20;;
30743;SDS011;17486;46.738;7.622;2023-12-22T08:08:14;2.85;;;1.00;;
30743;SDS011;17486;46.738;7.622;2023-12-22T08:10:40;2.38;;;1.00;;
30743;SDS011;17486;46.738;7.622;2023-12-22T08:13:06;1.67;;;0.80;;
30743;SDS011;17486;46.738;7.622;2023-12-22T08:15:31;2.67;;;1.20;;
30743;SDS011;17486;46.738;7.622;2023-12-22T08:17:57;4.60;;;1.42;;
30743;SDS011;17486;46.738;7.622;2023-12-22T08:20:22;5.35;;;1.30;;
30743;SDS011;17486;46.738;7.622;2023-12-22T08:22:48;1.30;;;0.77;;
30743;SDS011;17486;46.738;7.622;2023-12-22T08:25:14;0.32;;;0.20;;
30743;SDS011;17486;46.738;7.622;2023-12-22T08:27:41;1.52;;;0.60;;
30743;SDS011;17486;46.738;7.622;2023-12-22T08:30:07;1.15;;;0.63;;
30743;SDS011;17486;46.738;7.622;2023-12-22T08:32:36;0.40;;;0.40;;
30743;SDS011;17486;46.738;7.622;2023-12-22T08:35:01;0.98;;;0.32;;
30743;SDS011;17486;46.738;7.622;2023-12-22T08:37:28;0.38;;;0.20;;
30743;SDS011;17486;46.738;7.622;2023-12-22T08:39:53;0.13;;;0.13;;
30743;SDS011;17486;46.738;7.622;2023-12-22T08:42:18;0.68;;;0.30;;
30743;SDS011;17486;46.738;7.622;2023-12-22T08:44:44;0.63;;;0.30;;
30743;SDS011;17486;46.738;7.622;2023-12-22T08:47:09;0.40;;;0.20;;
30743;SDS011;17486;46.738;7.622;2023-12-22T08:49:35;1.27;;;0.38;;
30743;SDS011;17486;46.738;7.622;2023-12-22T08:52:00;0.45;;;0.40;;
30743;SDS011;17486;46.738;7.622;2023-12-22T08:54:26;0.95;;;0.47;;
30743;SDS011;17486;46.738;7.622;2023-12-22T08:56:52;0.43;;;0.43;;
30743;SDS011;17486;46.738;7.622;2023-12-22T08:59:17;0.60;;;0.30;;
30743;SDS011;17486;46.738;7.622;2023-12-22T09:01:43;1.00;;;0.63;;
30743;SDS011;17486;46.738;7.622;2023-12-22T09:04:09;2.20;;;1.27;;
30743;SDS011;17486;46.738;7.622;2023-12-22T09:06:36;1.55;;;0.75;;
30743;SDS011;17486;46.738;7.622;2023-12-22T09:09:01;1.33;;;0.60;;
30743;SDS011;17486;46.738;7.622;2023-12-22T09:11:28;0.88;;;0.63;;
30743;SDS011;17486;46.738;7.622;2023-12-22T09:13:54;0.60;;;0.60;;
30743;SDS011;17486;46.738;7.622;2023-12-22T09:16:20;1.30;;;0.70;;
30743;SDS011;17486;46.738;7.622;2023-12-22T09:18:46;2.38;;;1.10;;
30743;SDS011;17486;46.738;7.622;2023-12-22T09:21:12;3.55;;;1.17;;
30743;SDS011;17486;46.738;7.622;2023-12-22T09:23:37;94.25;;;57.35;;
30743;SDS011;17486;46.738;7.622;2023-12-22T09:26:02;156.93;;;91.70;;
30743;SDS011;17486;46.738;7.622;2023-12-22T09:28:29;99.97;;;57.22;;
30743;SDS011;17486;46.738;7.622;2023-12-22T09:30:55;55.20;;;31.45;;
30743;SDS011;17486;46.738;7.622;2023-12-22T09:33:20;14.70;;;7.15;;
30743;SDS011;17486;46.738;7.622;2023-12-22T09:35:47;4.07;;;1.75;;
30743;SDS011;17486;46.738;7.622;2023-12-22T09:38:13;1.27;;;0.80;;
30743;SDS011;17486;46.738;7.622;2023-12-22T09:40:38;1.60;;;0.80;;
30743;SDS011;17486;46.738;7.622;2023-12-22T09:43:04;1.92;;;1.00;;
30743;SDS011;17486;46.738;7.622;2023-12-22T09:45:32;4.18;;;1.00;;
30743;SDS011;17486;46.738;7.622;2023-12-22T09:47:59;1.83;;;1.02;;
30743;SDS011;17486;46.738;7.622;2023-12-22T09:50:25;3.13;;;1.10;;
30743;SDS011;17486;46.738;7.622;2023-12-22T09:52:51;3.17;;;0.93;;
30743;SDS011;17486;46.738;7.622;2023-12-22T09:55:17;3.42;;;1.27;;
30743;SDS011;17486;46.738;7.622;2023-12-22T09:57:46;3.00;;;1.30;;
30743;SDS011;17486;46.738;7.622;2023-12-22T10:00:12;2.30;;;1.10;;
30743;SDS011;17486;46.738;7.622;2023-12-22T10:02:39;3.00;;;0.80;;
30743;SDS011;17486;46.738;7.622;2023-12-22T10:05:06;3.20;;;0.80;;
30743;SDS011;17486;46.738;7.622;2023-12-22T10:07:32;3.53;;;1.38;;
30743;SDS011;17486;46.738;7.622;2023-12-22T10:09:58;4.53;;;1.25;;
30743;SDS011;17486;46.738;7.622;2023-12-22T10:12:25;2.80;;;1.10;;
30743;SDS011;17486;46.738;7.622;2023-12-22T10:14:52;3.05;;;0.90;;
30743;SDS011;17486;46.738;7.622;2023-12-22T10:17:18;2.75;;;0.98;;
30743;SDS011;17486;46.738;7.622;2023-12-22T10:19:44;3.05;;;0.82;;
30743;SDS011;17486;46.738;7.622;2023-12-22T10:22:09;5.10;;;1.42;;
30743;SDS011;17486;46.738;7.622;2023-12-22T10:24:36;7.45;;;2.05;;
30743;SDS011;17486;46.738;7.622;2023-12-22T10:27:01;2.63;;;1.13;;
30743;SDS011;17486;46.738;7.622;2023-12-22T10:29:27;4.10;;;1.30;;
30743;SDS011;17486;46.738;7.622;2023-12-22T10:31:52;4.57;;;1.20;;
30743;SDS011;17486;46.738;7.622;2023-12-22T10:34:17;4.38;;;1.00;;
30743;SDS011;17486;46.738;7.622;2023-12-22T10:36:43;1.77;;;0.75;;
30743;SDS011;17486;46.738;7.622;2023-12-22T10:39:08;2.75;;;0.90;;
30743;SDS011;17486;46.738;7.622;2023-12-22T10:41:34;1.77;;;0.80;;
30743;SDS011;17486;46.738;7.622;2023-12-22T10:44:00;2.08;;;1.17;;
30743;SDS011;17486;46.738;7.622;2023-12-22T10:46:25;1.85;;;0.77;;
30743;SDS011;17486;46.738;7.622;2023-12-22T10:48:52;2.35;;;0.90;;
30743;SDS011;17486;46.738;7.622;2023-12-22T10:51:18;2.80;;;1.60;;
30743;SDS011;17486;46.738;7.622;2023-12-22T10:53:44;2.40;;;1.35;;
30743;SDS011;17486;46.738;7.622;2023-12-22T10:56:10;1.67;;;0.80;;
30743;SDS011;17486;46.738;7.622;2023-12-22T10:58:35;3.15;;;1.10;;
30743;SDS011;17486;46.738;7.622;2023-12-22T11:01:01;3.38;;;1.00;;
30743;SDS011;17486;46.738;7.622;2023-12-22T11:03:28;5.68;;;3.10;;
30743;SDS011;17486;46.738;7.622;2023-12-22T11:05:59;9.35;;;6.20;;
30743;SDS011;17486;46.738;7.622;2023-12-22T11:08:29;22.50;;;16.08;;
30743;SDS011;17486;46.738;7.622;2023-12-22T11:10:57;20.90;;;16.38;;
30743;SDS011;17486;46.738;7.622;2023-12-22T11:13:24;253.38;;;168.38;;
30743;SDS011;17486;46.738;7.622;2023-12-22T11:15:49;206.13;;;135.90;;
30743;SDS011;17486;46.738;7.622;2023-12-22T11:18:17;186.13;;;114.45;;
30743;SDS011;17486;46.738;7.622;2023-12-22T11:20:44;96.03;;;54.20;;
30743;SDS011;17486;46.738;7.622;2023-12-22T11:23:11;27.90;;;16.67;;
30743;SDS011;17486;46.738;7.622;2023-12-22T11:25:38;8.10;;;5.07;;
30743;SDS011;17486;46.738;7.622;2023-12-22T11:28:05;3.85;;;2.60;;
30743;SDS011;17486;46.738;7.622;2023-12-22T11:30:32;1.58;;;1.48;;
30743;SDS011;17486;46.738;7.622;2023-12-22T11:32:58;1.30;;;1.00;;
30743;SDS011;17486;46.738;7.622;2023-12-22T11:35:25;0.40;;;0.40;;
30743;SDS011;17486;46.738;7.622;2023-12-22T11:37:52;0.35;;;0.30;;
30743;SDS011;17486;46.738;7.622;2023-12-22T11:40:18;0.85;;;0.73;;
30743;SDS011;17486;46.738;7.622;2023-12-22T11:42:45;4.18;;;3.80;;
30743;SDS011;17486;46.738;7.622;2023-12-22T11:45:14;5.70;;;5.18;;
30743;SDS011;17486;46.738;7.622;2023-12-22T11:47:41;5.95;;;5.38;;
30743;SDS011;17486;46.738;7.622;2023-12-22T11:50:10;5.45;;;4.95;;
30743;SDS011;17486;46.738;7.622;2023-12-22T11:52:36;3.13;;;2.45;;
30743;SDS011;17486;46.738;7.622;2023-12-22T11:55:02;1.33;;;0.95;;
30743;SDS011;17486;46.738;7.622;2023-12-22T11:59:54;0.10;;;0.10;;
30743;SDS011;17486;46.738;7.622;2023-12-22T12:02:21;0.30;;;0.30;;
30743;SDS011;17486;46.738;7.622;2023-12-22T12:04:52;0.28;;;0.20;;
30743;SDS011;17486;46.738;7.622;2023-12-22T12:10:06;0.30;;;0.30;;
30743;SDS011;17486;46.738;7.622;2023-12-22T12:12:33;1.55;;;0.70;;
30743;SDS011;17486;46.738;7.622;2023-12-22T12:15:02;0.70;;;0.50;;
30743;SDS011;17486;46.738;7.622;2023-12-22T12:17:32;0.32;;;0.32;;
30743;SDS011;17486;46.738;7.622;2023-12-22T12:19:57;0.25;;;0.20;;
30743;SDS011;17486;46.738;7.622;2023-12-22T12:22:23;0.47;;;0.28;;
30743;SDS011;17486;46.738;7.622;2023-12-22T12:24:50;0.20;;;0.20;;
30743;SDS011;17486;46.738;7.622;2023-12-22T12:27:19;0.10;;;0.10;;
30743;SDS011;17486;46.738;7.622;2023-12-22T12:29:44;0.10;;;0.10;;
30743;SDS011;17486;46.738;7.622;2023-12-22T12:32:10;0.20;;;0.10;;
30743;SDS011;17486;46.738;7.622;2023-12-22T12:34:39;0.10;;;0.10;;
30743;SDS011;17486;46.738;7.622;2023-12-22T12:37:07;0.40;;;0.20;;
30743;SDS011;17486;46.738;7.622;2023-12-22T12:39:33;0.30;;;0.30;;
30743;SDS011;17486;46.738;7.622;2023-12-22T12:42:00;0.40;;;0.30;;
30743;SDS011;17486;46.738;7.622;2023-12-22T12:44:29;1.95;;;0.32;;
30743;SDS011;17486;46.738;7.622;2023-12-22T12:46:54;0.35;;;0.30;;
30743;SDS011;17486;46.738;7.622;2023-12-22T12:49:20;0.40;;;0.40;;
30743;SDS011;17486;46.738;7.622;2023-12-22T12:51:46;0.30;;;0.20;;
30743;SDS011;17486;46.738;7.622;2023-12-22T12:54:13;1.25;;;0.35;;
30743;SDS011;17486;46.738;7.622;2023-12-22T12:56:42;1.17;;;0.95;;
30743;SDS011;17486;46.738;7.622;2023-12-22T12:59:10;1.50;;;1.05;;
30743;SDS011;17486;46.738;7.622;2023-12-22T13:01:46;0.40;;;0.40;;
30743;SDS011;17486;46.738;7.622;2023-12-22T13:04:12;0.50;;;0.50;;
30743;SDS011;17486;46.738;7.622;2023-12-22T13:06:48;3.13;;;2.83;;
30743;SDS011;17486;46.738;7.622;2023-12-22T13:09:15;3.67;;;3.38;;
30743;SDS011;17486;46.738;7.622;2023-12-22T13:11:41;2.78;;;2.40;;
30743;SDS011;17486;46.738;7.622;2023-12-22T13:14:08;1.70;;;1.60;;
30743;SDS011;17486;46.738;7.622;2023-12-22T13:16:36;1.48;;;1.38;;
30743;SDS011;17486;46.738;7.622;2023-12-22T13:19:02;0.90;;;0.90;;
30743;SDS011;17486;46.738;7.622;2023-12-22T13:21:28;0.95;;;0.90;;
30743;SDS011;17486;46.738;7.622;2023-12-22T13:24:16;0.50;;;0.50;;
30743;SDS011;17486;46.738;7.622;2023-12-22T13:26:42;0.38;;;0.38;;
30743;SDS011;17486;46.738;7.622;2023-12-22T13:29:09;0.40;;;0.40;;
30743;SDS011;17486;46.738;7.622;2023-12-22T13:31:41;0.30;;;0.30;;
30743;SDS011;17486;46.738;7.622;2023-12-22T13:34:11;0.50;;;0.40;;
30743;SDS011;17486;46.738;7.622;2023-12-22T13:36:37;0.68;;;0.55;;
30743;SDS011;17486;46.738;7.622;2023-12-22T13:39:06;121.70;;;69.32;;
30743;SDS011;17486;46.738;7.622;2023-12-22T13:41:33;302.70;;;166.90;;
30743;SDS011;17486;46.738;7.622;2023-12-22T13:44:10;148.90;;;79.97;;
30743;SDS011;17486;46.738;7.622;2023-12-22T13:46:36;87.28;;;46.35;;
30743;SDS011;17486;46.738;7.622;2023-12-22T13:49:05;28.92;;;15.90;;
30743;SDS011;17486;46.738;7.622;2023-12-22T13:51:44;8.75;;;5.38;;
30743;SDS011;17486;46.738;7.622;2023-12-22T13:54:10;2.65;;;2.00;;
30743;SDS011;17486;46.738;7.622;2023-12-22T13:56:37;2.75;;;1.85;;
30743;SDS011;17486;46.738;7.622;2023-12-22T13:59:05;2.95;;;2.22;;
30743;SDS011;17486;46.738;7.622;2023-12-22T14:01:30;2.15;;;1.60;;
30743;SDS011;17486;46.738;7.622;2023-12-22T14:03:57;1.25;;;1.15;;
30743;SDS011;17486;46.738;7.622;2023-12-22T14:06:24;1.52;;;1.33;;
30743;SDS011;17486;46.738;7.622;2023-12-22T14:08:50;1.92;;;1.73;;
30743;SDS011;17486;46.738;7.622;2023-12-22T14:11:15;4.75;;;4.20;;
30743;SDS011;17486;46.738;7.622;2023-12-22T14:13:40;6.20;;;5.28;;
30743;SDS011;17486;46.738;7.622;2023-12-22T14:16:06;2.63;;;2.42;;
30743;SDS011;17486;46.738;7.622;2023-12-22T14:18:32;3.22;;;2.85;;
30743;SDS011;17486;46.738;7.622;2023-12-22T14:20:58;2.63;;;2.42;;
30743;SDS011;17486;46.738;7.622;2023-12-22T14:23:24;1.65;;;1.55;;
30743;SDS011;17486;46.738;7.622;2023-12-22T14:25:50;0.95;;;0.95;;
30743;SDS011;17486;46.738;7.622;2023-12-22T14:28:15;1.25;;;0.50;;
30743;SDS011;17486;46.738;7.622;2023-12-22T14:30:40;0.43;;;0.30;;
30743;SDS011;17486;46.738;7.622;2023-12-22T14:33:06;0.20;;;0.20;;
30743;SDS011;17486;46.738;7.622;2023-12-22T14:35:31;0.28;;;0.28;;
30743;SDS011;17486;46.738;7.622;2023-12-22T14:37:57;0.38;;;0.38;;
30743;SDS011;17486;46.738;7.622;2023-12-22T14:40:22;0.65;;;0.40;;
30743;SDS011;17486;46.738;7.622;2023-12-22T14:42:47;0.25;;;0.25;;
30743;SDS011;17486;46.738;7.622;2023-12-22T14:45:13;0.13;;;0.13;;
30743;SDS011;17486;46.738;7.622;2023-12-22T14:47:38;0.82;;;0.28;;
30743;SDS011;17486;46.738;7.622;2023-12-22T14:50:04;0.28;;;0.25;;
30743;SDS011;17486;46.738;7.622;2023-12-22T14:52:30;0.10;;;0.10;;